createdAt,value
2022-08-31T00:00:36.931Z,72.07
2022-08-31T00:03:25.128Z,71.84
2022-08-31T00:06:07.365Z,72.72
2022-08-31T00:08:37.514Z,72.30
2022-08-31T00:11:09.870Z,72.97
2022-08-31T00:13:38.413Z,72.71
2022-08-31T00:16:07.347Z,72.62
2022-08-31T00:18:37.434Z,72.85
2022-08-31T00:21:06.577Z,73.19
2022-08-31T00:23:34.900Z,72.93
2022-08-31T00:26:03.205Z,73.36
2022-08-31T00:28:31.513Z,73.20
2022-08-31T00:30:59.833Z,73.37
2022-08-31T00:33:28.153Z,73.94
2022-08-31T00:35:57.821Z,74.01
2022-08-31T00:38:26.078Z,73.83
2022-08-31T00:40:54.480Z,74.17
2022-08-31T00:43:40.089Z,73.82
2022-08-31T00:46:11.285Z,73.50
2022-08-31T00:48:45.565Z,73.77
2022-08-31T00:51:18.822Z,74.02
2022-08-31T00:53:50.779Z,74.25
2022-08-31T00:56:20.562Z,73.75
2022-08-31T00:58:54.653Z,74.33
2022-08-31T01:01:24.432Z,74.35
2022-08-31T01:03:52.997Z,74.59
2022-08-31T01:06:24.199Z,75.32
2022-08-31T01:08:55.699Z,74.95
2022-08-31T01:11:24.134Z,75.30
2022-08-31T01:13:52.765Z,75.38
2022-08-31T01:16:26.045Z,75.20
2022-08-31T01:18:55.388Z,75.16
2022-08-31T01:21:30.599Z,75.34
2022-08-31T01:24:03.876Z,75.30
2022-08-31T01:26:34.956Z,75.13
2022-08-31T01:29:07.498Z,75.83
2022-08-31T01:31:40.239Z,75.97
2022-08-31T01:34:08.820Z,75.51
2022-08-31T01:36:40.344Z,75.28
2022-08-31T01:39:12.464Z,75.68
2022-08-31T01:41:44.139Z,75.51
2022-08-31T01:44:17.362Z,75.58
2022-08-31T01:46:47.305Z,75.63
2022-08-31T01:49:17.598Z,75.79
2022-08-31T01:51:47.046Z,76.38
2022-08-31T01:54:18.493Z,76.78
2022-08-31T01:56:49.639Z,76.62
2022-08-31T01:59:25.841Z,76.50
2022-08-31T02:02:01.108Z,77.32
2022-08-31T02:04:31.552Z,76.80
2022-08-31T02:07:02.184Z,77.16
2022-08-31T02:09:33.155Z,77.48
2022-08-31T02:12:01.471Z,77.32
2022-08-31T02:14:29.748Z,78.53
2022-08-31T02:16:58.263Z,78.64
2022-08-31T02:19:26.632Z,77.94
2022-08-31T02:21:57.422Z,78.24
2022-08-31T02:24:25.739Z,78.51
2022-08-31T02:26:58.414Z,78.67
2022-08-31T02:29:27.629Z,78.17
2022-08-31T02:31:57.007Z,78.00
2022-08-31T02:34:25.364Z,78.39
2022-08-31T02:36:54.213Z,78.47
2022-08-31T02:39:23.233Z,78.80
2022-08-31T02:41:52.153Z,79.38
2022-08-31T02:44:22.154Z,79.42
2022-08-31T02:46:50.487Z,78.70
2022-08-31T02:49:37.337Z,79.24
2022-08-31T02:52:05.841Z,78.83
2022-08-31T02:54:34.195Z,78.92
2022-08-31T02:57:02.996Z,79.37
2022-08-31T02:59:32.724Z,78.77
2022-08-31T03:02:01.111Z,78.83
2022-08-31T03:04:30.302Z,78.75
2022-08-31T03:06:58.640Z,78.76
2022-08-31T03:09:27.041Z,78.70
2022-08-31T03:11:55.372Z,78.86
2022-08-31T03:14:23.629Z,78.25
2022-08-31T03:16:54.771Z,79.32
2022-08-31T03:19:23.877Z,79.95
2022-08-31T03:21:56.314Z,79.53
2022-08-31T03:24:27.421Z,79.28
2022-08-31T03:26:56.777Z,80.11
2022-08-31T03:29:25.175Z,79.58
2022-08-31T03:31:57.784Z,80.12
2022-08-31T03:34:27.488Z,79.80
2022-08-31T03:36:56.383Z,79.63
2022-08-31T03:39:24.667Z,80.73
2022-08-31T03:41:53.261Z,79.70
2022-08-31T03:44:23.887Z,80.27
2022-08-31T03:46:55.278Z,79.59
2022-08-31T03:49:26.983Z,79.86
2022-08-31T03:52:10.295Z,79.36
2022-08-31T03:54:46.103Z,79.84
2022-08-31T03:57:14.579Z,79.32
2022-08-31T03:59:44.094Z,79.63
2022-08-31T04:02:21.336Z,79.35
2022-08-31T04:05:21.332Z,80.21
2022-08-31T04:08:09.171Z,80.09
2022-08-31T04:10:49.005Z,79.19
2022-08-31T04:13:36.182Z,79.96
2022-08-31T04:16:26.584Z,80.62
2022-08-31T04:19:16.135Z,81.11
2022-08-31T04:21:57.336Z,81.20
2022-08-31T04:24:26.232Z,80.64
2022-08-31T04:26:54.994Z,80.77
2022-08-31T04:29:23.703Z,80.94
2022-08-31T04:31:52.233Z,81.53
2022-08-31T04:34:20.805Z,81.21
2022-08-31T04:36:49.172Z,81.52
2022-08-31T04:39:21.020Z,81.64
2022-08-31T04:41:52.539Z,80.69
2022-08-31T04:44:21.269Z,80.31
2022-08-31T04:46:57.367Z,81.24
2022-08-31T04:49:25.930Z,80.69
2022-08-31T04:51:54.262Z,81.00
2022-08-31T04:54:23.965Z,81.31
2022-08-31T04:56:52.274Z,81.87
2022-08-31T04:59:30.629Z,83.03
2022-08-31T05:02:21.920Z,82.49
2022-08-31T05:05:06.158Z,82.64
2022-08-31T05:07:34.472Z,82.92
2022-08-31T05:10:05.391Z,82.84
2022-08-31T05:12:33.682Z,82.22
2022-08-31T05:15:01.938Z,83.79
2022-08-31T05:17:30.351Z,84.39
2022-08-31T05:19:58.634Z,84.35
2022-08-31T05:22:27.173Z,84.39
2022-08-31T05:24:57.615Z,84.76
2022-08-31T05:27:27.324Z,84.54
2022-08-31T05:29:55.536Z,84.66
2022-08-31T05:32:45.726Z,84.84
2022-08-31T05:35:14.557Z,85.18
2022-08-31T05:37:44.958Z,85.04
2022-08-31T05:40:14.092Z,84.38
2022-08-31T05:42:43.812Z,82.92
2022-08-31T05:45:12.237Z,82.93
2022-08-31T05:47:42.345Z,82.71
2022-08-31T05:50:11.598Z,83.01
2022-08-31T05:52:42.906Z,82.90
2022-08-31T05:55:12.016Z,83.36
2022-08-31T05:57:40.704Z,83.13
2022-08-31T06:00:12.909Z,82.46
2022-08-31T06:02:42.059Z,82.83
2022-08-31T06:05:12.948Z,81.80
2022-08-31T06:07:41.697Z,82.58
2022-08-31T06:10:12.692Z,83.29
2022-08-31T06:12:44.177Z,83.16
2022-08-31T06:15:15.663Z,83.82
2022-08-31T06:17:45.314Z,82.72
2022-08-31T06:20:17.696Z,83.45
2022-08-31T06:22:47.994Z,83.54
2022-08-31T06:25:27.812Z,83.22
2022-08-31T06:27:56.677Z,82.37
2022-08-31T06:30:27.545Z,82.78
2022-08-31T06:32:58.868Z,83.08
2022-08-31T06:35:33.144Z,82.59
2022-08-31T06:38:21.222Z,83.83
2022-08-31T06:41:28.391Z,84.88
2022-08-31T06:44:16.600Z,84.17
2022-08-31T06:47:08.200Z,85.73
2022-08-31T06:49:40.262Z,85.01
2022-08-31T06:52:09.009Z,85.44
2022-08-31T06:54:39.639Z,86.18
2022-08-31T06:57:26.612Z,85.19
2022-08-31T07:00:13.658Z,85.33
2022-08-31T07:02:54.710Z,85.31
2022-08-31T07:05:26.169Z,84.37
2022-08-31T07:07:55.347Z,84.11
2022-08-31T07:10:23.644Z,84.16
2022-08-31T07:12:51.886Z,83.83
2022-08-31T07:15:20.133Z,83.93
2022-08-31T07:17:51.797Z,84.43
2022-08-31T07:20:21.263Z,84.55
2022-08-31T07:22:49.743Z,83.84
2022-08-31T07:25:44.869Z,83.78
2022-08-31T07:28:14.792Z,84.00
2022-08-31T07:30:43.200Z,83.85
2022-08-31T07:33:16.892Z,83.08
2022-08-31T07:35:50.814Z,83.15
2022-08-31T07:38:52.904Z,83.89
2022-08-31T07:41:40.179Z,82.66
2022-08-31T07:44:09.808Z,82.81
2022-08-31T07:46:40.083Z,82.75
2022-08-31T07:49:13.927Z,82.40
2022-08-31T07:52:12.507Z,81.85
2022-08-31T07:55:07.875Z,81.90
2022-08-31T07:57:55.933Z,81.73
2022-08-31T08:00:27.669Z,81.79
2022-08-31T08:03:11.147Z,81.53
2022-08-31T08:06:12.926Z,80.39
2022-08-31T08:09:24.569Z,80.90
2022-08-31T08:12:07.307Z,80.48
2022-08-31T08:14:54.806Z,80.58
2022-08-31T08:17:31.801Z,80.54
2022-08-31T08:20:13.497Z,80.99
2022-08-31T08:22:54.280Z,80.61
2022-08-31T08:25:35.809Z,80.61
2022-08-31T08:28:28.928Z,80.60
2022-08-31T08:31:01.639Z,79.74
2022-08-31T08:33:34.764Z,78.48
2022-08-31T08:36:08.517Z,79.59
2022-08-31T08:38:43.825Z,79.39
2022-08-31T08:41:16.790Z,78.85
2022-08-31T08:43:52.435Z,79.26
2022-08-31T08:46:40.235Z,79.31
2022-08-31T08:49:19.294Z,79.22
2022-08-31T08:51:53.488Z,78.52
2022-08-31T08:54:31.716Z,78.13
2022-08-31T08:57:04.874Z,77.72
2022-08-31T08:59:33.177Z,78.03
2022-08-31T09:02:05.080Z,77.37
2022-08-31T09:05:00.223Z,77.26
2022-08-31T09:08:10.318Z,77.18
2022-08-31T09:10:46.597Z,76.83
2022-08-31T09:13:26.774Z,76.07
2022-08-31T09:16:08.953Z,76.38
2022-08-31T09:18:49.604Z,76.38
2022-08-31T09:21:22.640Z,77.00
2022-08-31T09:24:01.709Z,76.86
2022-08-31T09:26:48.513Z,76.45
2022-08-31T09:29:32.420Z,76.62
2022-08-31T09:32:06.315Z,76.45
2022-08-31T09:34:38.707Z,76.63
2022-08-31T09:37:16.446Z,76.50
2022-08-31T09:39:48.512Z,75.69
2022-08-31T09:42:31.157Z,75.14
2022-08-31T09:45:07.653Z,75.65
2022-08-31T09:47:51.137Z,75.95
2022-08-31T09:50:35.583Z,75.42
2022-08-31T09:53:40.883Z,74.09
2022-08-31T09:56:16.912Z,73.05
2022-08-31T09:58:50.837Z,73.23
2022-08-31T10:01:26.181Z,72.53
2022-08-31T10:04:20.946Z,72.96
2022-08-31T10:07:01.831Z,73.40
2022-08-31T10:09:36.221Z,72.65
2022-08-31T10:12:13.512Z,72.34
2022-08-31T10:14:50.681Z,72.17
2022-08-31T10:17:26.290Z,72.16
2022-08-31T10:20:07.705Z,71.05
2022-08-31T10:22:41.994Z,69.54
2022-08-31T10:25:22.985Z,70.58
2022-08-31T10:27:58.515Z,71.43
2022-08-31T10:30:36.402Z,71.08
2022-08-31T10:33:13.255Z,70.23
2022-08-31T10:35:54.727Z,70.42
2022-08-31T10:38:32.037Z,70.94
2022-08-31T10:41:11.920Z,70.90
2022-08-31T10:43:49.143Z,70.35
2022-08-31T10:46:19.214Z,71.01
2022-08-31T10:48:53.236Z,70.21
2022-08-31T10:51:30.349Z,70.81
2022-08-31T10:54:24.769Z,69.83
2022-08-31T10:57:04.710Z,69.45
2022-08-31T10:59:45.981Z,70.23
2022-08-31T11:02:45.797Z,70.00
2022-08-31T11:05:33.311Z,70.22
2022-08-31T11:08:22.505Z,71.37
2022-08-31T11:10:54.354Z,70.60
2022-08-31T11:13:53.901Z,68.75
2022-08-31T11:16:46.731Z,68.83
2022-08-31T11:19:44.885Z,68.87
2022-08-31T11:22:53.894Z,69.22
2022-08-31T11:25:48.157Z,68.08
2022-08-31T11:28:34.033Z,68.46
2022-08-31T11:31:09.515Z,68.25
2022-08-31T11:33:37.981Z,68.54
2022-08-31T11:36:10.266Z,67.83
2022-08-31T11:38:48.792Z,68.39
2022-08-31T11:41:46.707Z,67.63
2022-08-31T11:44:52.202Z,68.17
2022-08-31T11:47:54.962Z,66.47
2022-08-31T11:51:07.233Z,65.84
2022-08-31T11:53:44.177Z,66.47
2022-08-31T11:56:15.232Z,66.42
2022-08-31T11:58:50.259Z,65.29
2022-08-31T12:01:36.117Z,64.38
2022-08-31T12:04:06.415Z,65.04
2022-08-31T12:07:11.083Z,65.14
2022-08-31T12:10:29.716Z,63.68
2022-08-31T12:13:24.138Z,61.56
2022-08-31T12:16:36.885Z,61.36
2022-08-31T12:19:43.198Z,61.21
2022-08-31T12:22:56.833Z,61.05
2022-08-31T12:25:36.404Z,58.51
2022-08-31T12:28:12.922Z,59.04
2022-08-31T12:30:51.103Z,59.32
2022-08-31T12:33:23.084Z,59.75
2022-08-31T12:35:58.030Z,56.18
2022-08-31T12:38:27.344Z,57.71
2022-08-31T12:40:58.759Z,57.94
2022-08-31T12:43:34.910Z,55.92
2022-08-31T12:46:34.107Z,53.48
2022-08-31T12:49:22.761Z,55.54
2022-08-31T12:51:57.309Z,52.85
2022-08-31T12:55:23.732Z,52.57
2022-08-31T12:58:13.831Z,53.09
2022-08-31T13:00:43.531Z,52.76
2022-08-31T13:03:21.829Z,52.92
2022-08-31T13:06:09.891Z,51.51
2022-08-31T13:08:42.053Z,52.56
2022-08-31T13:11:22.993Z,51.72
2022-08-31T13:13:54.185Z,51.41
2022-08-31T13:16:23.507Z,51.26
2022-08-31T13:19:02.965Z,50.30
2022-08-31T13:21:31.811Z,50.57
2022-08-31T13:24:08.319Z,51.88
2022-08-31T13:26:38.603Z,51.68
2022-08-31T13:29:10.189Z,52.53
2022-08-31T13:31:50.729Z,51.83
2022-08-31T13:34:20.393Z,52.98
2022-08-31T13:36:53.634Z,52.49
2022-08-31T13:39:28.164Z,52.41
2022-08-31T13:42:06.096Z,52.59
2022-08-31T13:44:44.234Z,51.48
2022-08-31T13:47:24.820Z,52.08
2022-08-31T13:50:07.287Z,52.17
2022-08-31T13:52:37.064Z,52.27
2022-08-31T13:55:09.625Z,51.21
2022-08-31T13:57:39.246Z,52.87
2022-08-31T14:00:33.575Z,50.35
2022-08-31T14:03:45.100Z,49.25
2022-08-31T14:06:25.295Z,48.36
2022-08-31T14:09:00.266Z,49.01
2022-08-31T14:11:29.108Z,48.23
2022-08-31T14:14:07.416Z,49.62
2022-08-31T14:16:43.524Z,50.12
2022-08-31T14:19:12.757Z,48.80
2022-08-31T14:21:43.593Z,49.33
2022-08-31T14:24:13.323Z,49.68
2022-08-31T14:26:44.418Z,49.12
2022-08-31T14:29:15.550Z,47.42
2022-08-31T14:31:52.485Z,47.99
2022-08-31T14:34:27.348Z,46.50
2022-08-31T14:36:59.380Z,47.42
2022-08-31T14:39:31.917Z,47.81
2022-08-31T14:42:03.803Z,48.37
2022-08-31T14:44:36.806Z,46.88
2022-08-31T14:47:06.970Z,47.77
2022-08-31T14:49:36.513Z,49.13
2022-08-31T14:52:06.605Z,48.74
2022-08-31T14:54:37.723Z,47.83
2022-08-31T14:57:12.766Z,48.60
2022-08-31T14:59:44.810Z,48.80
2022-08-31T15:02:21.638Z,50.39
2022-08-31T15:04:50.972Z,51.22
2022-08-31T15:07:20.880Z,51.75
2022-08-31T15:09:50.266Z,51.71
2022-08-31T15:12:19.400Z,50.99
2022-08-31T15:14:47.685Z,51.37
2022-08-31T15:17:20.792Z,51.60
2022-08-31T15:19:55.211Z,50.95
2022-08-31T15:22:26.180Z,50.57
2022-08-31T15:24:55.639Z,49.42
2022-08-31T15:27:28.720Z,48.42
2022-08-31T15:30:08.092Z,49.00
2022-08-31T15:32:45.155Z,49.19
2022-08-31T15:35:18.024Z,49.53
2022-08-31T15:37:53.049Z,49.95
2022-08-31T15:40:22.234Z,49.94
2022-08-31T15:42:50.969Z,50.71
2022-08-31T15:45:19.607Z,52.42
2022-08-31T15:48:07.131Z,53.12
2022-08-31T15:50:36.022Z,53.70
2022-08-31T15:53:09.919Z,54.64
2022-08-31T15:55:41.000Z,54.79
2022-08-31T15:58:10.688Z,55.36
2022-08-31T16:00:41.812Z,55.46
2022-08-31T16:03:15.587Z,55.60
2022-08-31T16:05:44.305Z,55.18
2022-08-31T16:08:14.133Z,55.89
2022-08-31T16:10:44.581Z,55.68
2022-08-31T16:13:13.425Z,56.16
2022-08-31T16:15:41.838Z,56.25
2022-08-31T16:18:12.794Z,56.08
2022-08-31T16:20:41.110Z,55.95
2022-08-31T16:23:09.395Z,55.99
2022-08-31T16:25:47.719Z,56.59
2022-08-31T16:28:18.423Z,56.57
2022-08-31T16:30:46.966Z,56.44
2022-08-31T16:33:16.593Z,57.20
2022-08-31T16:35:45.884Z,57.33
2022-08-31T16:38:15.134Z,58.17
2022-08-31T16:40:44.314Z,57.73
2022-08-31T16:43:12.982Z,57.82
2022-08-31T16:45:42.205Z,57.68
2022-08-31T16:48:29.540Z,57.20
2022-08-31T16:51:02.154Z,57.56
2022-08-31T16:53:32.619Z,57.96
2022-08-31T16:56:04.594Z,58.35
2022-08-31T16:58:51.262Z,58.22
2022-08-31T17:01:25.552Z,59.24
2022-08-31T17:03:56.910Z,59.54
2022-08-31T17:06:31.843Z,60.09
2022-08-31T17:09:03.236Z,61.76
2022-08-31T17:11:35.690Z,61.94
2022-08-31T17:14:11.133Z,62.23
2022-08-31T17:16:41.413Z,61.99
2022-08-31T17:19:13.457Z,61.75
2022-08-31T17:21:50.561Z,62.34
2022-08-31T17:24:23.350Z,62.44
2022-08-31T17:26:54.057Z,63.19
2022-08-31T17:29:23.683Z,63.14
2022-08-31T17:31:53.630Z,64.05
2022-08-31T17:34:26.911Z,64.73
2022-08-31T17:37:00.538Z,64.86
2022-08-31T17:39:29.452Z,64.83
2022-08-31T17:41:58.135Z,65.26
2022-08-31T17:44:30.847Z,66.24
2022-08-31T17:47:04.288Z,67.05
2022-08-31T17:49:37.979Z,67.38
2022-08-31T17:52:09.150Z,68.10
2022-08-31T17:54:42.131Z,68.07
2022-08-31T17:57:13.408Z,68.98
2022-08-31T17:59:48.791Z,69.35
2022-08-31T18:02:21.575Z,68.75
2022-08-31T18:04:54.251Z,69.31
2022-08-31T18:07:23.984Z,68.82
2022-08-31T18:09:53.857Z,69.30
2022-08-31T18:12:25.539Z,69.52
2022-08-31T18:14:57.437Z,69.54
2022-08-31T18:17:26.616Z,69.91
2022-08-31T18:19:55.780Z,70.14
2022-08-31T18:22:26.075Z,69.62
2022-08-31T18:24:54.331Z,69.76
2022-08-31T18:27:22.618Z,70.06
2022-08-31T18:29:52.821Z,70.09
2022-08-31T18:32:23.091Z,70.45
2022-08-31T18:34:57.050Z,71.36
2022-08-31T18:37:28.181Z,71.36
2022-08-31T18:40:14.037Z,71.93
2022-08-31T18:43:00.191Z,71.13
2022-08-31T18:45:30.827Z,72.05
2022-08-31T18:48:25.114Z,72.40
2022-08-31T18:50:51.044Z,72.62
2022-08-31T18:53:28.688Z,72.49
2022-08-31T18:56:07.957Z,73.03
2022-08-31T18:58:36.915Z,73.69
2022-08-31T19:01:10.445Z,73.75
2022-08-31T19:03:39.634Z,74.00
2022-08-31T19:06:08.866Z,74.07
2022-08-31T19:08:38.510Z,74.56
2022-08-31T19:11:33.439Z,74.97
2022-08-31T19:14:01.937Z,75.36
2022-08-31T19:16:32.190Z,75.28
2022-08-31T19:19:00.485Z,75.56
2022-08-31T19:21:33.184Z,76.33
2022-08-31T19:24:07.404Z,75.83
2022-08-31T19:26:38.689Z,76.56
2022-08-31T19:29:11.272Z,76.04
2022-08-31T19:31:44.346Z,75.77
2022-08-31T19:34:15.983Z,75.71
2022-08-31T19:36:45.960Z,76.45
2022-08-31T19:39:19.127Z,76.61
2022-08-31T19:41:50.932Z,76.53
2022-08-31T19:44:19.891Z,77.00
2022-08-31T19:46:55.626Z,77.24
2022-08-31T19:49:26.691Z,77.51
2022-08-31T19:52:01.105Z,78.12
2022-08-31T19:54:35.742Z,78.79
2022-08-31T19:57:06.845Z,79.34
2022-08-31T19:59:35.952Z,79.93
2022-08-31T20:02:07.545Z,79.77
2022-08-31T20:04:36.676Z,79.79
2022-08-31T20:07:06.398Z,80.19
2022-08-31T20:09:36.434Z,80.17
2022-08-31T20:12:05.256Z,80.68
2022-08-31T20:14:33.556Z,80.78
2022-08-31T20:17:02.043Z,81.35
2022-08-31T20:19:36.697Z,81.94
2022-08-31T20:22:08.061Z,82.22
2022-08-31T20:24:43.919Z,82.74
2022-08-31T20:27:18.376Z,82.68
2022-08-31T20:29:48.150Z,82.35
2022-08-31T20:32:16.609Z,82.97
2022-08-31T20:34:44.922Z,83.19
2022-08-31T20:37:14.201Z,84.15
2022-08-31T20:39:43.802Z,83.98
2022-08-31T20:42:12.773Z,84.40
2022-08-31T20:44:41.134Z,84.53
2022-08-31T20:47:29.350Z,84.78
2022-08-31T20:49:59.695Z,85.50
2022-08-31T20:52:35.938Z,85.93
2022-08-31T20:55:08.255Z,85.91
2022-08-31T20:57:40.658Z,85.73
2022-08-31T21:00:11.734Z,86.35
2022-08-31T21:02:40.744Z,85.87
2022-08-31T21:05:38.083Z,86.10
2022-08-31T21:08:02.508Z,86.65
2022-08-31T21:10:37.426Z,86.02
2022-08-31T21:13:10.182Z,86.32
2022-08-31T21:15:44.771Z,86.03
2022-08-31T21:18:17.371Z,85.78
2022-08-31T21:20:46.171Z,86.08
2022-08-31T21:23:14.453Z,84.86
2022-08-31T21:25:47.005Z,85.37
2022-08-31T21:28:18.292Z,84.63
2022-08-31T21:30:49.560Z,84.58
2022-08-31T21:33:18.207Z,84.28
2022-08-31T21:35:47.749Z,84.29
2022-08-31T21:38:16.204Z,84.39
2022-08-31T21:40:52.085Z,84.22
2022-08-31T21:43:21.125Z,83.43
2022-08-31T21:45:55.129Z,83.63
2022-08-31T21:48:26.152Z,82.90
2022-08-31T21:50:54.983Z,82.32
2022-08-31T21:53:25.719Z,82.43
2022-08-31T21:55:55.557Z,82.71
2022-08-31T21:58:23.785Z,82.46
2022-08-31T22:00:52.561Z,82.60
2022-08-31T22:03:21.249Z,82.72
2022-08-31T22:05:50.305Z,82.74
2022-08-31T22:08:19.876Z,83.00
2022-08-31T22:10:50.257Z,82.76
2022-08-31T22:13:20.047Z,82.74
2022-08-31T22:15:48.527Z,82.99
2022-08-31T22:21:05.853Z,83.34
2022-08-31T22:23:35.749Z,83.53
2022-08-31T22:26:04.251Z,83.09
2022-08-31T22:28:34.836Z,84.00
2022-08-31T22:31:04.742Z,83.69
2022-08-31T22:33:33.022Z,84.13
2022-08-31T22:36:01.866Z,84.61
2022-08-31T22:38:30.190Z,84.39
2022-08-31T22:40:58.874Z,84.87
2022-08-31T22:43:27.209Z,84.16
2022-08-31T22:45:56.916Z,84.62
2022-08-31T22:48:28.064Z,85.07
2022-08-31T22:50:56.396Z,85.62
2022-08-31T22:53:24.630Z,84.93
2022-08-31T22:55:52.884Z,85.89
2022-08-31T22:58:21.252Z,86.19
2022-08-31T23:00:49.628Z,85.61
2022-08-31T23:03:22.027Z,86.36
2022-08-31T23:05:52.669Z,86.31
2022-08-31T23:08:22.573Z,86.70
2022-08-31T23:10:50.847Z,86.12
2022-08-31T23:13:39.146Z,86.62
2022-08-31T23:16:07.453Z,86.92
2022-08-31T23:18:37.130Z,87.07
2022-08-31T23:21:08.698Z,87.36
2022-08-31T23:23:37.514Z,88.35
2022-08-31T23:26:09.561Z,88.06
2022-08-31T23:28:38.409Z,88.53
2022-08-31T23:31:08.387Z,88.36
2022-08-31T23:33:38.054Z,88.69
2022-08-31T23:36:08.231Z,89.07
2022-08-31T23:38:37.982Z,88.95
2022-08-31T23:41:06.598Z,89.49
2022-08-31T23:43:41.913Z,90.14
2022-08-31T23:46:10.203Z,89.49
2022-08-31T23:48:41.049Z,89.60
2022-08-31T23:51:10.669Z,90.24
2022-08-31T23:53:39.293Z,90.71
2022-08-31T23:56:09.648Z,90.65
2022-08-31T23:58:39.893Z,91.55
